sensor_id;sensor_type;location;lat;lon;timestamp;pressure;altitude;pressure_sealevel;temperature;humidity
12594;BME280;6362;50.208;9.182;2023-01-04T00:00:18;100985.88;;;4.52;80.70
12594;BME280;6362;50.208;9.182;2023-01-04T00:02:44;100979.00;;;4.53;80.45
12594;BME280;6362;50.208;9.182;2023-01-04T00:05:09;100986.31;;;4.66;79.88
12594;BME280;6362;50.208;9.182;2023-01-04T00:07:34;100985.16;;;4.56;79.97
12594;BME280;6362;50.208;9.182;2023-01-04T00:10:00;100985.91;;;4.54;80.67
12594;BME280;6362;50.208;9.182;2023-01-04T00:12:25;100991.84;;;4.51;80.57
12594;BME280;6362;50.208;9.182;2023-01-04T00:14:51;100996.88;;;4.48;80.14
12594;BME280;6362;50.208;9.182;2023-01-04T00:17:16;100985.38;;;4.38;79.73
12594;BME280;6362;50.208;9.182;2023-01-04T00:19:42;100989.56;;;4.35;80.71
12594;BME280;6362;50.208;9.182;2023-01-04T00:22:07;100991.06;;;4.28;80.28
12594;BME280;6362;50.208;9.182;2023-01-04T00:24:32;100987.38;;;4.21;80.29
12594;BME280;6362;50.208;9.182;2023-01-04T00:26:58;100993.13;;;4.14;80.54
12594;BME280;6362;50.208;9.182;2023-01-04T00:29:23;100984.41;;;4.11;80.83
12594;BME280;6362;50.208;9.182;2023-01-04T00:31:49;100986.94;;;4.09;81.25
12594;BME280;6362;50.208;9.182;2023-01-04T00:34:15;100973.88;;;4.03;80.65
12594;BME280;6362;50.208;9.182;2023-01-04T00:36:42;100970.25;;;3.98;80.53
12594;BME280;6362;50.208;9.182;2023-01-04T00:39:13;100971.25;;;4.02;80.92
12594;BME280;6362;50.208;9.182;2023-01-04T00:44:07;100962.53;;;3.98;81.41
12594;BME280;6362;50.208;9.182;2023-01-04T00:46:34;100957.28;;;3.95;81.24
12594;BME280;6362;50.208;9.182;2023-01-04T00:49:00;100951.41;;;3.99;81.24
12594;BME280;6362;50.208;9.182;2023-01-04T00:51:27;100949.81;;;4.03;81.06
12594;BME280;6362;50.208;9.182;2023-01-04T00:53:52;100952.81;;;4.15;80.94
12594;BME280;6362;50.208;9.182;2023-01-04T00:56:18;100950.44;;;4.21;81.06
12594;BME280;6362;50.208;9.182;2023-01-04T00:58:43;100944.63;;;4.27;80.44
12594;BME280;6362;50.208;9.182;2023-01-04T01:01:09;100946.81;;;4.40;80.12
12594;BME280;6362;50.208;9.182;2023-01-04T01:03:35;100950.34;;;4.43;80.22
12594;BME280;6362;50.208;9.182;2023-01-04T01:06:04;100944.97;;;4.36;79.29
12594;BME280;6362;50.208;9.182;2023-01-04T01:08:34;100946.34;;;4.52;79.43
12594;BME280;6362;50.208;9.182;2023-01-04T01:11:08;100945.38;;;4.48;79.26
12594;BME280;6362;50.208;9.182;2023-01-04T01:13:34;100934.78;;;4.39;79.19
12594;BME280;6362;50.208;9.182;2023-01-04T01:16:12;100941.59;;;4.38;78.96
12594;BME280;6362;50.208;9.182;2023-01-04T01:18:40;100934.69;;;4.37;78.67
12594;BME280;6362;50.208;9.182;2023-01-04T01:21:08;100921.78;;;4.36;79.75
12594;BME280;6362;50.208;9.182;2023-01-04T01:23:34;100916.63;;;4.61;79.42
12594;BME280;6362;50.208;9.182;2023-01-04T01:26:01;100911.84;;;4.73;78.51
12594;BME280;6362;50.208;9.182;2023-01-04T01:28:27;100908.09;;;4.64;78.36
12594;BME280;6362;50.208;9.182;2023-01-04T01:30:52;100905.22;;;4.55;79.07
12594;BME280;6362;50.208;9.182;2023-01-04T01:33:18;100907.59;;;4.48;79.36
12594;BME280;6362;50.208;9.182;2023-01-04T01:35:43;100900.66;;;4.46;79.59
12594;BME280;6362;50.208;9.182;2023-01-04T01:38:09;100897.41;;;4.52;79.47
12594;BME280;6362;50.208;9.182;2023-01-04T01:40:39;100894.56;;;4.44;79.72
12594;BME280;6362;50.208;9.182;2023-01-04T01:45:57;100893.25;;;4.30;79.43
12594;BME280;6362;50.208;9.182;2023-01-04T01:48:26;100897.50;;;4.28;80.20
12594;BME280;6362;50.208;9.182;2023-01-04T01:50:56;100893.16;;;4.27;80.08
12594;BME280;6362;50.208;9.182;2023-01-04T01:53:25;100899.25;;;4.29;80.52
12594;BME280;6362;50.208;9.182;2023-01-04T01:55:53;100891.34;;;4.24;80.27
12594;BME280;6362;50.208;9.182;2023-01-04T01:58:41;100890.16;;;4.40;80.44
12594;BME280;6362;50.208;9.182;2023-01-04T02:01:08;100883.38;;;4.69;79.36
12594;BME280;6362;50.208;9.182;2023-01-04T02:03:36;100888.75;;;4.76;79.16
12594;BME280;6362;50.208;9.182;2023-01-04T02:06:06;100885.03;;;4.67;79.57
12594;BME280;6362;50.208;9.182;2023-01-04T02:08:32;100877.50;;;4.73;79.99
12594;BME280;6362;50.208;9.182;2023-01-04T02:11:00;100874.50;;;4.88;78.74
12594;BME280;6362;50.208;9.182;2023-01-04T02:13:28;100870.69;;;5.03;78.68
12594;BME280;6362;50.208;9.182;2023-01-04T02:16:43;100865.16;;;5.20;77.98
12594;BME280;6362;50.208;9.182;2023-01-04T02:24:54;100865.38;;;5.27;77.69
12594;BME280;6362;50.208;9.182;2023-01-04T02:35:18;100849.69;;;5.20;77.92
12594;BME280;6362;50.208;9.182;2023-01-04T02:38:16;100843.81;;;5.25;77.90
12594;BME280;6362;50.208;9.182;2023-01-04T02:41:41;100850.78;;;5.28;77.95
12594;BME280;6362;50.208;9.182;2023-01-04T02:43:49;100846.22;;;5.19;77.88
12594;BME280;6362;50.208;9.182;2023-01-04T02:46:42;100842.59;;;5.13;78.96
12594;BME280;6362;50.208;9.182;2023-01-04T02:49:08;100836.25;;;5.01;79.06
12594;BME280;6362;50.208;9.182;2023-01-04T02:51:52;100820.78;;;5.01;79.43
12594;BME280;6362;50.208;9.182;2023-01-04T02:54:22;100822.34;;;4.96;80.02
12594;BME280;6362;50.208;9.182;2023-01-04T03:00:09;100810.16;;;4.91;80.27
12594;BME280;6362;50.208;9.182;2023-01-04T03:08:31;100805.78;;;4.88;80.34
12594;BME280;6362;50.208;9.182;2023-01-04T03:11:04;100811.91;;;4.92;80.69
12594;BME280;6362;50.208;9.182;2023-01-04T03:13:50;100803.34;;;4.93;80.75
12594;BME280;6362;50.208;9.182;2023-01-04T03:16:21;100811.69;;;5.14;80.38
12594;BME280;6362;50.208;9.182;2023-01-04T03:18:54;100819.03;;;5.30;79.99
12594;BME280;6362;50.208;9.182;2023-01-04T03:21:23;100817.78;;;5.48;79.30
12594;BME280;6362;50.208;9.182;2023-01-04T03:23:54;100811.69;;;5.44;79.75
12594;BME280;6362;50.208;9.182;2023-01-04T03:26:43;100807.25;;;5.39;80.19
12594;BME280;6362;50.208;9.182;2023-01-04T03:33:01;100793.38;;;5.67;79.06
12594;BME280;6362;50.208;9.182;2023-01-04T03:35:50;100779.94;;;5.80;78.25
12594;BME280;6362;50.208;9.182;2023-01-04T03:38:32;100772.44;;;5.89;78.07
12594;BME280;6362;50.208;9.182;2023-01-04T03:41:25;100774.03;;;5.84;78.13
12594;BME280;6362;50.208;9.182;2023-01-04T03:44:22;100767.78;;;5.76;78.58
12594;BME280;6362;50.208;9.182;2023-01-04T03:47:23;100765.75;;;5.64;79.21
12594;BME280;6362;50.208;9.182;2023-01-04T03:50:13;100757.31;;;5.70;79.50
12594;BME280;6362;50.208;9.182;2023-01-04T03:52:42;100750.31;;;5.66;79.57
12594;BME280;6362;50.208;9.182;2023-01-04T03:55:11;100745.81;;;5.57;79.46
12594;BME280;6362;50.208;9.182;2023-01-04T03:57:38;100745.09;;;5.63;79.83
12594;BME280;6362;50.208;9.182;2023-01-04T04:00:09;100746.09;;;5.69;79.33
12594;BME280;6362;50.208;9.182;2023-01-04T04:02:38;100746.00;;;5.65;79.67
12594;BME280;6362;50.208;9.182;2023-01-04T04:05:04;100743.72;;;5.77;78.55
12594;BME280;6362;50.208;9.182;2023-01-04T04:07:48;100735.34;;;5.86;78.46
12594;BME280;6362;50.208;9.182;2023-01-04T04:10:32;100736.31;;;5.91;78.10
12594;BME280;6362;50.208;9.182;2023-01-04T04:12:58;100730.03;;;6.16;76.60
12594;BME280;6362;50.208;9.182;2023-01-04T04:15:23;100732.75;;;6.22;75.93
12594;BME280;6362;50.208;9.182;2023-01-04T04:17:48;100715.63;;;6.24;75.89
12594;BME280;6362;50.208;9.182;2023-01-04T04:20:14;100717.47;;;6.31;75.24
12594;BME280;6362;50.208;9.182;2023-01-04T04:22:40;100715.22;;;6.45;74.04
12594;BME280;6362;50.208;9.182;2023-01-04T04:25:05;100711.03;;;6.50;74.02
12594;BME280;6362;50.208;9.182;2023-01-04T04:27:31;100709.34;;;6.53;73.50
12594;BME280;6362;50.208;9.182;2023-01-04T04:29:56;100706.84;;;6.56;72.99
12594;BME280;6362;50.208;9.182;2023-01-04T04:32:22;100700.88;;;6.60;72.59
12594;BME280;6362;50.208;9.182;2023-01-04T04:34:47;100708.69;;;6.62;73.10
12594;BME280;6362;50.208;9.182;2023-01-04T04:37:13;100701.84;;;6.64;73.30
12594;BME280;6362;50.208;9.182;2023-01-04T04:39:38;100693.97;;;6.59;73.50
12594;BME280;6362;50.208;9.182;2023-01-04T04:42:04;100704.41;;;6.63;73.36
12594;BME280;6362;50.208;9.182;2023-01-04T04:44:29;100704.50;;;6.67;72.80
12594;BME280;6362;50.208;9.182;2023-01-04T04:46:54;100694.94;;;6.65;72.78
12594;BME280;6362;50.208;9.182;2023-01-04T04:49:20;100694.22;;;6.72;71.91
12594;BME280;6362;50.208;9.182;2023-01-04T04:51:45;100680.41;;;6.70;72.36
12594;BME280;6362;50.208;9.182;2023-01-04T04:54:15;100686.41;;;6.67;72.88
12594;BME280;6362;50.208;9.182;2023-01-04T04:56:41;100681.97;;;6.61;73.50
12594;BME280;6362;50.208;9.182;2023-01-04T04:59:07;100678.56;;;6.63;72.66
12594;BME280;6362;50.208;9.182;2023-01-04T05:01:32;100676.00;;;6.64;73.00
12594;BME280;6362;50.208;9.182;2023-01-04T05:03:58;100668.22;;;6.63;73.68
12594;BME280;6362;50.208;9.182;2023-01-04T05:06:23;100659.41;;;6.54;74.70
12594;BME280;6362;50.208;9.182;2023-01-04T05:08:49;100667.84;;;6.44;75.63
12594;BME280;6362;50.208;9.182;2023-01-04T05:11:14;100655.78;;;6.45;75.14
12594;BME280;6362;50.208;9.182;2023-01-04T05:13:40;100650.31;;;6.31;75.95
12594;BME280;6362;50.208;9.182;2023-01-04T05:16:07;100648.38;;;6.21;77.40
12594;BME280;6362;50.208;9.182;2023-01-04T05:18:33;100654.38;;;6.18;77.45
12594;BME280;6362;50.208;9.182;2023-01-04T05:20:59;100643.22;;;6.21;77.92
12594;BME280;6362;50.208;9.182;2023-01-04T05:23:24;100645.03;;;6.25;77.25
12594;BME280;6362;50.208;9.182;2023-01-04T05:25:52;100644.06;;;6.21;77.97
12594;BME280;6362;50.208;9.182;2023-01-04T05:28:18;100643.94;;;6.14;78.13
12594;BME280;6362;50.208;9.182;2023-01-04T05:30:44;100631.78;;;6.09;78.67
12594;BME280;6362;50.208;9.182;2023-01-04T05:33:20;100630.91;;;6.09;78.95
12594;BME280;6362;50.208;9.182;2023-01-04T05:35:46;100623.91;;;6.03;79.58
12594;BME280;6362;50.208;9.182;2023-01-04T05:38:12;100625.56;;;6.00;79.47
12594;BME280;6362;50.208;9.182;2023-01-04T05:40:38;100622.81;;;5.94;80.62
12594;BME280;6362;50.208;9.182;2023-01-04T05:43:03;100621.16;;;5.96;80.38
12594;BME280;6362;50.208;9.182;2023-01-04T05:45:28;100605.66;;;5.94;79.78
12594;BME280;6362;50.208;9.182;2023-01-04T05:47:54;100610.00;;;5.98;79.27
12594;BME280;6362;50.208;9.182;2023-01-04T05:50:21;100608.25;;;5.96;80.07
12594;BME280;6362;50.208;9.182;2023-01-04T05:52:47;100602.38;;;6.03;79.54
12594;BME280;6362;50.208;9.182;2023-01-04T05:55:13;100603.19;;;6.00;79.36
12594;BME280;6362;50.208;9.182;2023-01-04T05:57:38;100600.78;;;6.08;79.05
12594;BME280;6362;50.208;9.182;2023-01-04T06:00:06;100598.22;;;6.09;79.04
12594;BME280;6362;50.208;9.182;2023-01-04T06:02:31;100591.44;;;6.15;78.86
12594;BME280;6362;50.208;9.182;2023-01-04T06:04:57;100587.03;;;6.11;78.33
12594;BME280;6362;50.208;9.182;2023-01-04T06:07:24;100582.91;;;6.19;77.81
12594;BME280;6362;50.208;9.182;2023-01-04T06:09:50;100587.25;;;6.20;77.95
12594;BME280;6362;50.208;9.182;2023-01-04T06:12:15;100587.47;;;6.30;77.55
12594;BME280;6362;50.208;9.182;2023-01-04T06:14:41;100583.16;;;6.31;77.36
12594;BME280;6362;50.208;9.182;2023-01-04T06:17:07;100594.69;;;6.47;76.04
12594;BME280;6362;50.208;9.182;2023-01-04T06:19:33;100603.41;;;6.53;75.93
12594;BME280;6362;50.208;9.182;2023-01-04T06:21:58;100591.47;;;6.60;75.14
12594;BME280;6362;50.208;9.182;2023-01-04T06:24:24;100603.53;;;6.59;74.76
12594;BME280;6362;50.208;9.182;2023-01-04T06:26:50;100599.16;;;6.55;75.53
12594;BME280;6362;50.208;9.182;2023-01-04T06:29:15;100600.16;;;6.62;75.04
12594;BME280;6362;50.208;9.182;2023-01-04T06:31:41;100601.09;;;6.67;74.72
12594;BME280;6362;50.208;9.182;2023-01-04T06:34:06;100598.53;;;6.69;74.78
12594;BME280;6362;50.208;9.182;2023-01-04T06:36:32;100602.88;;;6.70;74.21
12594;BME280;6362;50.208;9.182;2023-01-04T06:38:58;100609.75;;;6.69;74.76
12594;BME280;6362;50.208;9.182;2023-01-04T06:41:25;100606.31;;;6.69;74.21
12594;BME280;6362;50.208;9.182;2023-01-04T06:43:51;100591.56;;;6.65;74.59
12594;BME280;6362;50.208;9.182;2023-01-04T06:46:16;100601.03;;;6.63;74.38
12594;BME280;6362;50.208;9.182;2023-01-04T06:48:42;100598.34;;;6.58;74.87
12594;BME280;6362;50.208;9.182;2023-01-04T06:51:07;100591.44;;;6.57;74.40
12594;BME280;6362;50.208;9.182;2023-01-04T06:53:33;100580.25;;;6.58;74.46
12594;BME280;6362;50.208;9.182;2023-01-04T06:55:59;100566.44;;;6.56;74.44
12594;BME280;6362;50.208;9.182;2023-01-04T06:58:24;100565.56;;;6.55;74.69
12594;BME280;6362;50.208;9.182;2023-01-04T07:00:51;100564.66;;;6.55;75.24
12594;BME280;6362;50.208;9.182;2023-01-04T07:03:16;100551.81;;;6.56;75.04
12594;BME280;6362;50.208;9.182;2023-01-04T07:05:42;100553.44;;;6.51;75.14
12594;BME280;6362;50.208;9.182;2023-01-04T07:08:08;100548.25;;;6.51;74.68
12594;BME280;6362;50.208;9.182;2023-01-04T07:10:34;100536.97;;;6.46;75.03
12594;BME280;6362;50.208;9.182;2023-01-04T07:12:59;100524.16;;;6.52;75.13
12594;BME280;6362;50.208;9.182;2023-01-04T07:15:24;100534.50;;;6.52;75.17
12594;BME280;6362;50.208;9.182;2023-01-04T07:17:50;100538.88;;;6.56;74.45
12594;BME280;6362;50.208;9.182;2023-01-04T07:20:16;100554.34;;;6.55;74.45
12594;BME280;6362;50.208;9.182;2023-01-04T07:22:41;100562.13;;;6.56;74.85
12594;BME280;6362;50.208;9.182;2023-01-04T07:25:07;100562.09;;;6.55;74.80
12594;BME280;6362;50.208;9.182;2023-01-04T07:27:33;100557.81;;;6.55;74.54
12594;BME280;6362;50.208;9.182;2023-01-04T07:29:58;100557.94;;;6.63;74.61
12594;BME280;6362;50.208;9.182;2023-01-04T07:32:23;100575.00;;;6.55;74.54
12594;BME280;6362;50.208;9.182;2023-01-04T07:34:49;100573.31;;;6.55;74.74
12594;BME280;6362;50.208;9.182;2023-01-04T07:37:14;100563.91;;;6.59;74.09
12594;BME280;6362;50.208;9.182;2023-01-04T07:39:41;100544.19;;;6.64;74.13
12594;BME280;6362;50.208;9.182;2023-01-04T07:42:06;100531.25;;;6.63;74.42
12594;BME280;6362;50.208;9.182;2023-01-04T07:44:32;100542.34;;;6.58;74.61
12594;BME280;6362;50.208;9.182;2023-01-04T07:46:58;100532.88;;;6.59;74.59
12594;BME280;6362;50.208;9.182;2023-01-04T07:49:23;100532.88;;;6.59;74.54
12594;BME280;6362;50.208;9.182;2023-01-04T07:51:49;100521.75;;;6.61;74.58
12594;BME280;6362;50.208;9.182;2023-01-04T07:54:16;100536.38;;;6.61;74.42
12594;BME280;6362;50.208;9.182;2023-01-04T07:56:42;100530.38;;;6.62;74.55
12594;BME280;6362;50.208;9.182;2023-01-04T07:59:08;100545.88;;;6.62;74.69
12594;BME280;6362;50.208;9.182;2023-01-04T08:01:36;100526.94;;;6.63;74.52
12594;BME280;6362;50.208;9.182;2023-01-04T08:04:07;100536.44;;;6.66;74.67
12594;BME280;6362;50.208;9.182;2023-01-04T08:06:34;100535.44;;;6.57;74.85
12594;BME280;6362;50.208;9.182;2023-01-04T08:09:00;100537.28;;;6.65;74.68
12594;BME280;6362;50.208;9.182;2023-01-04T08:11:26;100529.53;;;6.63;74.74
12594;BME280;6362;50.208;9.182;2023-01-04T08:13:51;100528.69;;;6.66;75.00
12594;BME280;6362;50.208;9.182;2023-01-04T08:16:20;100543.31;;;6.64;75.38
12594;BME280;6362;50.208;9.182;2023-01-04T08:18:45;100542.47;;;6.66;74.96
12594;BME280;6362;50.208;9.182;2023-01-04T08:21:11;100552.91;;;6.71;74.89
12594;BME280;6362;50.208;9.182;2023-01-04T08:23:37;100551.28;;;6.76;75.23
12594;BME280;6362;50.208;9.182;2023-01-04T08:26:08;100568.59;;;6.80;75.19
12594;BME280;6362;50.208;9.182;2023-01-04T08:28:34;100554.59;;;6.69;75.56
12594;BME280;6362;50.208;9.182;2023-01-04T08:31:06;100551.44;;;6.83;75.05
12594;BME280;6362;50.208;9.182;2023-01-04T08:33:33;100560.00;;;6.81;75.13
12594;BME280;6362;50.208;9.182;2023-01-04T08:36:17;100545.31;;;6.80;75.39
12594;BME280;6362;50.208;9.182;2023-01-04T08:38:47;100545.44;;;6.86;75.13
12594;BME280;6362;50.208;9.182;2023-01-04T08:41:15;100535.97;;;6.86;75.40
12594;BME280;6362;50.208;9.182;2023-01-04T08:43:41;100526.41;;;6.82;75.25
12594;BME280;6362;50.208;9.182;2023-01-04T08:46:07;100535.84;;;6.79;76.18
12594;BME280;6362;50.208;9.182;2023-01-04T08:48:33;100528.22;;;6.88;75.97
12594;BME280;6362;50.208;9.182;2023-01-04T08:51:04;100523.03;;;6.88;76.08
12594;BME280;6362;50.208;9.182;2023-01-04T08:53:30;100517.97;;;6.93;75.52
12594;BME280;6362;50.208;9.182;2023-01-04T08:55:56;100532.69;;;6.97;75.79
12594;BME280;6362;50.208;9.182;2023-01-04T08:58:23;100522.34;;;6.97;75.77
12594;BME280;6362;50.208;9.182;2023-01-04T09:00:49;100508.47;;;6.92;76.17
12594;BME280;6362;50.208;9.182;2023-01-04T09:03:14;100506.81;;;6.97;76.09
12594;BME280;6362;50.208;9.182;2023-01-04T09:05:40;100515.34;;;6.91;76.48
12594;BME280;6362;50.208;9.182;2023-01-04T09:08:06;100514.50;;;6.92;76.38
12594;BME280;6362;50.208;9.182;2023-01-04T09:10:32;100502.53;;;6.97;76.39
12594;BME280;6362;50.208;9.182;2023-01-04T09:12:57;100497.34;;;6.96;76.46
12594;BME280;6362;50.208;9.182;2023-01-04T09:15:23;100497.38;;;6.99;76.76
12594;BME280;6362;50.208;9.182;2023-01-04T09:17:49;100489.66;;;7.00;76.54
12594;BME280;6362;50.208;9.182;2023-01-04T09:20:14;100508.53;;;6.96;77.10
12594;BME280;6362;50.208;9.182;2023-01-04T09:22:40;100506.13;;;7.05;76.89
12594;BME280;6362;50.208;9.182;2023-01-04T09:25:05;100509.56;;;7.06;77.18
12594;BME280;6362;50.208;9.182;2023-01-04T09:27:31;100506.16;;;7.10;77.07
12594;BME280;6362;50.208;9.182;2023-01-04T09:29:57;100513.94;;;7.10;76.84
12594;BME280;6362;50.208;9.182;2023-01-04T09:32:23;100508.81;;;7.11;76.93
12594;BME280;6362;50.208;9.182;2023-01-04T09:34:48;100510.53;;;7.11;77.31
12594;BME280;6362;50.208;9.182;2023-01-04T09:37:14;100501.09;;;7.16;77.20
12594;BME280;6362;50.208;9.182;2023-01-04T09:39:40;100490.81;;;7.19;76.83
12594;BME280;6362;50.208;9.182;2023-01-04T09:42:26;100496.06;;;7.24;77.04
12594;BME280;6362;50.208;9.182;2023-01-04T09:44:56;100502.97;;;7.26;76.87
12594;BME280;6362;50.208;9.182;2023-01-04T09:47:56;100504.63;;;7.21;77.19
12594;BME280;6362;50.208;9.182;2023-01-04T09:50:27;100502.09;;;7.24;77.47
12594;BME280;6362;50.208;9.182;2023-01-04T09:53:15;100512.50;;;7.29;77.25
12594;BME280;6362;50.208;9.182;2023-01-04T09:55:46;100505.69;;;7.34;76.95
12594;BME280;6362;50.208;9.182;2023-01-04T09:58:22;100506.44;;;7.27;77.46
12594;BME280;6362;50.208;9.182;2023-01-04T10:00:50;100511.72;;;7.34;77.56
12594;BME280;6362;50.208;9.182;2023-01-04T10:03:24;100500.53;;;7.35;77.84
12594;BME280;6362;50.208;9.182;2023-01-04T10:05:54;100496.28;;;7.39;77.40
12594;BME280;6362;50.208;9.182;2023-01-04T10:08:20;100504.91;;;7.39;77.54
12594;BME280;6362;50.208;9.182;2023-01-04T10:13:34;100492.88;;;7.43;77.70
12594;BME280;6362;50.208;9.182;2023-01-04T10:18:57;100482.56;;;7.45;78.40
12594;BME280;6362;50.208;9.182;2023-01-04T10:21:48;100471.44;;;7.50;77.97
12594;BME280;6362;50.208;9.182;2023-01-04T10:26:44;100473.06;;;7.45;78.22
12594;BME280;6362;50.208;9.182;2023-01-04T10:32:14;100466.28;;;7.55;77.99
12594;BME280;6362;50.208;9.182;2023-01-04T10:34:43;100473.09;;;7.48;77.84
12594;BME280;6362;50.208;9.182;2023-01-04T10:37:35;100461.16;;;7.56;77.50
12594;BME280;6362;50.208;9.182;2023-01-04T10:40:11;100462.91;;;7.59;77.90
12594;BME280;6362;50.208;9.182;2023-01-04T10:42:54;100458.56;;;7.58;77.55
12594;BME280;6362;50.208;9.182;2023-01-04T10:45:31;100451.66;;;7.57;77.87
12594;BME280;6362;50.208;9.182;2023-01-04T10:48:11;100431.81;;;7.57;77.55
12594;BME280;6362;50.208;9.182;2023-01-04T10:51:01;100432.63;;;7.55;77.73
12594;BME280;6362;50.208;9.182;2023-01-04T10:53:37;100433.53;;;7.55;77.73
12594;BME280;6362;50.208;9.182;2023-01-04T10:56:12;100430.16;;;7.61;77.87
12594;BME280;6362;50.208;9.182;2023-01-04T10:58:48;100426.66;;;7.60;77.41
12594;BME280;6362;50.208;9.182;2023-01-04T11:01:20;100424.19;;;7.66;77.70
12594;BME280;6362;50.208;9.182;2023-01-04T11:06:30;100434.56;;;7.71;77.51
12594;BME280;6362;50.208;9.182;2023-01-04T11:09:02;100434.56;;;7.70;77.91
12594;BME280;6362;50.208;9.182;2023-01-04T11:11:34;100425.97;;;7.72;77.95
12594;BME280;6362;50.208;9.182;2023-01-04T11:14:02;100425.94;;;7.71;77.74
12594;BME280;6362;50.208;9.182;2023-01-04T11:16:28;100429.50;;;7.79;77.57
12594;BME280;6362;50.208;9.182;2023-01-04T11:18:54;100421.72;;;7.79;77.69
12594;BME280;6362;50.208;9.182;2023-01-04T11:21:24;100413.97;;;7.82;77.87
12594;BME280;6362;50.208;9.182;2023-01-04T11:23:52;100400.16;;;7.80;77.60
12594;BME280;6362;50.208;9.182;2023-01-04T11:26:24;100400.16;;;7.81;78.17
12594;BME280;6362;50.208;9.182;2023-01-04T11:29:03;100395.91;;;7.83;77.61
12594;BME280;6362;50.208;9.182;2023-01-04T11:31:48;100393.25;;;7.82;78.03
12594;BME280;6362;50.208;9.182;2023-01-04T11:34:15;100395.03;;;7.86;78.05
12594;BME280;6362;50.208;9.182;2023-01-04T11:36:45;100399.28;;;7.78;78.70
12594;BME280;6362;50.208;9.182;2023-01-04T11:39:20;100384.63;;;7.80;78.38
12594;BME280;6362;50.208;9.182;2023-01-04T11:44:18;100399.38;;;7.87;78.19
12594;BME280;6362;50.208;9.182;2023-01-04T11:46:44;100395.97;;;7.89;78.08
12594;BME280;6362;50.208;9.182;2023-01-04T11:49:18;100392.50;;;7.89;78.13
12594;BME280;6362;50.208;9.182;2023-01-04T11:51:44;100379.56;;;7.90;78.37
12594;BME280;6362;50.208;9.182;2023-01-04T11:56:38;100373.56;;;7.96;77.76
12594;BME280;6362;50.208;9.182;2023-01-04T11:59:10;100367.53;;;7.96;77.96
12594;BME280;6362;50.208;9.182;2023-01-04T12:01:41;100354.56;;;7.94;78.21
12594;BME280;6362;50.208;9.182;2023-01-04T12:04:13;100357.13;;;7.92;78.15
12594;BME280;6362;50.208;9.182;2023-01-04T12:06:54;100357.19;;;7.97;78.30
12594;BME280;6362;50.208;9.182;2023-01-04T12:09:21;100355.38;;;7.90;78.51
12594;BME280;6362;50.208;9.182;2023-01-04T12:11:55;100349.41;;;7.94;78.82
12594;BME280;6362;50.208;9.182;2023-01-04T12:14:34;100340.81;;;8.00;78.76
12594;BME280;6362;50.208;9.182;2023-01-04T12:19:29;100334.81;;;8.05;78.19
12594;BME280;6362;50.208;9.182;2023-01-04T12:22:00;100336.63;;;8.14;77.42
12594;BME280;6362;50.208;9.182;2023-01-04T12:24:29;100327.09;;;8.11;77.71
12594;BME280;6362;50.208;9.182;2023-01-04T12:26:55;100322.03;;;8.22;77.75
12594;BME280;6362;50.208;9.182;2023-01-04T12:31:51;100320.25;;;8.19;77.67
12594;BME280;6362;50.208;9.182;2023-01-04T12:47:04;100297.91;;;8.34;77.45
12594;BME280;6362;50.208;9.182;2023-01-04T12:52:44;100285.91;;;8.42;77.88
12594;BME280;6362;50.208;9.182;2023-01-04T13:05:47;100272.13;;;8.44;79.09
12594;BME280;6362;50.208;9.182;2023-01-04T13:08:16;100273.81;;;8.41;79.50
12594;BME280;6362;50.208;9.182;2023-01-04T13:10:46;100278.88;;;8.32;80.73
12594;BME280;6362;50.208;9.182;2023-01-04T13:18:56;100257.22;;;8.19;81.97
12594;BME280;6362;50.208;9.182;2023-01-04T13:21:40;100256.31;;;8.12;81.90
12594;BME280;6362;50.208;9.182;2023-01-04T13:24:29;100259.75;;;8.14;81.99
12594;BME280;6362;50.208;9.182;2023-01-04T13:26:55;100241.63;;;8.13;82.58
12594;BME280;6362;50.208;9.182;2023-01-04T13:29:24;100242.44;;;8.10;82.60
12594;BME280;6362;50.208;9.182;2023-01-04T13:34:29;100229.53;;;8.12;83.02
12594;BME280;6362;50.208;9.182;2023-01-04T13:37:03;100230.41;;;8.12;82.80
12594;BME280;6362;50.208;9.182;2023-01-04T13:39:30;100220.84;;;8.05;83.04
12594;BME280;6362;50.208;9.182;2023-01-04T13:41:56;100215.69;;;8.05;83.41
12594;BME280;6362;50.208;9.182;2023-01-04T13:45:03;100222.63;;;8.11;82.64
12594;BME280;6362;50.208;9.182;2023-01-04T13:47:37;100220.03;;;8.12;83.12
12594;BME280;6362;50.208;9.182;2023-01-04T13:50:04;100216.53;;;8.10;83.19
12594;BME280;6362;50.208;9.182;2023-01-04T13:52:30;100207.91;;;8.07;83.23
12594;BME280;6362;50.208;9.182;2023-01-04T13:55:19;100204.50;;;8.14;83.01
12594;BME280;6362;50.208;9.182;2023-01-04T13:58:14;100197.63;;;8.17;82.54
12594;BME280;6362;50.208;9.182;2023-01-04T14:01:06;100195.91;;;8.18;82.15
12594;BME280;6362;50.208;9.182;2023-01-04T14:04:01;100203.66;;;8.19;82.41
12594;BME280;6362;50.208;9.182;2023-01-04T14:06:46;100201.94;;;8.20;82.60
12594;BME280;6362;50.208;9.182;2023-01-04T14:09:17;100188.09;;;8.15;83.16
12594;BME280;6362;50.208;9.182;2023-01-04T14:11:47;100197.63;;;8.17;83.01
12594;BME280;6362;50.208;9.182;2023-01-04T14:20:04;100186.44;;;8.23;81.89
12594;BME280;6362;50.208;9.182;2023-01-04T14:36:11;100159.72;;;8.35;81.92
12594;BME280;6362;50.208;9.182;2023-01-04T14:43:47;100163.22;;;8.38;81.27
12594;BME280;6362;50.208;9.182;2023-01-04T14:46:14;100165.72;;;8.31;81.56
12594;BME280;6362;50.208;9.182;2023-01-04T14:48:39;100165.81;;;8.38;81.57
12594;BME280;6362;50.208;9.182;2023-01-04T14:51:05;100167.56;;;8.42;81.00
12594;BME280;6362;50.208;9.182;2023-01-04T14:53:31;100164.09;;;8.42;81.15
12594;BME280;6362;50.208;9.182;2023-01-04T14:55:57;100175.34;;;8.44;81.02
12594;BME280;6362;50.208;9.182;2023-01-04T14:58:23;100159.78;;;8.39;81.02
12594;BME280;6362;50.208;9.182;2023-01-04T15:00:48;100161.53;;;8.48;80.79
12594;BME280;6362;50.208;9.182;2023-01-04T15:03:14;100167.59;;;8.50;80.79
12594;BME280;6362;50.208;9.182;2023-01-04T15:05:42;100156.38;;;8.53;80.78
12594;BME280;6362;50.208;9.182;2023-01-04T15:08:10;100153.81;;;8.57;80.66
12594;BME280;6362;50.208;9.182;2023-01-04T15:10:35;100158.97;;;8.59;80.21
12594;BME280;6362;50.208;9.182;2023-01-04T15:13:01;100161.59;;;8.65;79.95
12594;BME280;6362;50.208;9.182;2023-01-04T15:15:29;100151.22;;;8.59;80.16
12594;BME280;6362;50.208;9.182;2023-01-04T15:17:54;100151.22;;;8.60;80.26